createdAt,value
2023-02-12T00:00:24.473Z,11.61
2023-02-12T00:05:47.279Z,9.84
2023-02-12T00:10:50.096Z,8.34
2023-02-12T00:15:53.143Z,10.28
2023-02-12T00:21:00.247Z,9.60
2023-02-12T00:26:18.747Z,7.83
2023-02-12T00:31:27.253Z,9.92
2023-02-12T00:36:32.094Z,10.44
2023-02-12T00:41:34.920Z,8.02
2023-02-12T00:46:38.143Z,6.67
2023-02-12T00:51:40.955Z,8.08
2023-02-12T00:56:43.741Z,10.58
2023-02-12T01:01:46.592Z,8.88
2023-02-12T01:06:49.596Z,7.17
2023-02-12T01:11:52.495Z,6.85
2023-02-12T01:16:55.333Z,9.66
2023-02-12T01:21:58.130Z,8.37
2023-02-12T01:27:00.973Z,6.68
2023-02-12T01:32:04.176Z,7.19
2023-02-12T01:37:07.128Z,10.13
2023-02-12T01:42:15.273Z,8.63
2023-02-12T01:47:18.768Z,6.70
2023-02-12T01:52:33.134Z,5.57
2023-02-12T01:57:41.407Z,5.81
2023-02-12T02:02:49.208Z,8.77
2023-02-12T02:07:53.547Z,7.38
2023-02-12T02:13:15.657Z,5.90
2023-02-12T02:18:41.890Z,5.02
2023-02-12T02:24:16.316Z,4.44
2023-02-12T02:30:22.952Z,5.85
2023-02-12T02:35:36.620Z,9.14
2023-02-12T02:40:48.316Z,7.32
2023-02-12T02:46:03.202Z,5.88
2023-02-12T02:51:16.189Z,4.93
2023-02-12T02:56:23.177Z,4.30
2023-02-12T03:01:43.299Z,6.51
2023-02-12T03:07:03.724Z,7.93
2023-02-12T03:12:19.640Z,5.90
2023-02-12T03:17:31.672Z,4.75
2023-02-12T03:22:39.806Z,4.00
2023-02-12T03:28:03.004Z,3.50
2023-02-12T03:33:34.400Z,3.09
2023-02-12T03:38:44.977Z,5.97
2023-02-12T03:43:59.722Z,7.94
2023-02-12T03:49:14.452Z,6.01
2023-02-12T03:54:22.210Z,4.74
2023-02-12T03:59:26.019Z,4.03
2023-02-12T04:04:29.601Z,4.66
2023-02-12T04:09:32.569Z,7.69
2023-02-12T04:14:50.326Z,6.39
2023-02-12T04:20:23.647Z,4.95
2023-02-12T04:26:14.818Z,4.10
2023-02-12T04:31:38.643Z,3.51
2023-02-12T04:37:35.215Z,3.12
2023-02-12T04:42:44.254Z,4.42
2023-02-12T04:47:47.496Z,8.28
2023-02-12T04:52:50.398Z,8.15
2023-02-12T04:57:53.229Z,6.11
2023-02-12T05:02:56.052Z,5.03
2023-02-12T05:07:58.924Z,4.33
2023-02-12T05:13:01.773Z,3.80
2023-02-12T05:18:04.852Z,3.36
2023-02-12T05:23:07.683Z,4.91
2023-02-12T05:28:10.513Z,8.39
2023-02-12T05:33:13.377Z,7.34
2023-02-12T05:38:16.200Z,5.59
2023-02-12T05:43:19.195Z,4.61
2023-02-12T05:48:22.050Z,3.94
2023-02-12T05:53:24.976Z,3.40
2023-02-12T05:58:27.835Z,3.01
2023-02-12T06:03:30.665Z,2.71
2023-02-12T06:08:33.957Z,2.82
2023-02-12T06:13:36.989Z,6.41
2023-02-12T06:18:39.851Z,7.82
2023-02-12T06:23:42.922Z,5.96
2023-02-12T06:28:45.935Z,4.91
2023-02-12T06:33:49.235Z,4.28
2023-02-12T06:38:52.797Z,3.83
2023-02-12T06:43:55.940Z,3.49
2023-02-12T06:49:00.991Z,3.23
2023-02-12T06:54:03.903Z,3.04
2023-02-12T06:59:07.398Z,2.88
2023-02-12T07:04:11.102Z,2.74
2023-02-12T07:09:14.160Z,2.68
2023-02-12T07:14:17.556Z,5.27
2023-02-12T07:19:21.092Z,7.57
2023-02-12T07:24:23.981Z,5.89
2023-02-12T07:29:26.833Z,4.90
2023-02-12T07:34:29.700Z,4.35
2023-02-12T07:39:32.816Z,3.91
2023-02-12T07:44:36.200Z,3.59
2023-02-12T07:49:39.012Z,3.35
2023-02-12T07:54:41.895Z,3.19
2023-02-12T07:59:44.690Z,3.07
2023-02-12T08:04:47.656Z,2.93
2023-02-12T08:09:51.131Z,2.81
2023-02-12T08:14:54.681Z,2.73
2023-02-12T08:19:57.512Z,2.71
2023-02-12T08:25:00.318Z,2.74
2023-02-12T08:30:03.543Z,2.76
2023-02-12T08:35:06.913Z,2.83
2023-02-12T08:40:13.723Z,2.87
2023-02-12T08:45:16.685Z,2.94
2023-02-12T08:50:19.558Z,5.66
2023-02-12T08:55:22.409Z,8.06
2023-02-12T09:00:25.461Z,6.52
2023-02-12T09:05:28.381Z,5.62
2023-02-12T09:10:31.397Z,5.12
2023-02-12T09:15:44.997Z,4.72
2023-02-12T09:20:47.959Z,4.38
2023-02-12T09:25:50.762Z,4.09
2023-02-12T09:30:53.719Z,3.79
2023-02-12T09:35:56.852Z,3.50
2023-02-12T09:41:30.946Z,3.35
2023-02-12T09:46:49.000Z,3.28
2023-02-12T09:51:55.095Z,3.31
2023-02-12T09:57:01.957Z,3.34
2023-02-12T10:02:20.365Z,3.40
2023-02-12T10:07:58.935Z,3.49
2023-02-12T10:13:14.072Z,4.48
2023-02-12T10:18:57.189Z,8.43
2023-02-12T10:24:31.992Z,7.62
2023-02-12T10:29:39.740Z,6.13
2023-02-12T10:34:42.890Z,5.46
2023-02-12T10:39:54.685Z,4.98
2023-02-12T10:44:57.565Z,4.62
2023-02-12T10:50:02.807Z,4.28
2023-02-12T10:55:25.041Z,3.94
2023-02-12T11:00:37.589Z,3.66
2023-02-12T11:05:44.252Z,3.44
2023-02-12T11:10:47.138Z,3.29
2023-02-12T11:15:50.441Z,3.22
2023-02-12T11:20:58.686Z,3.20
2023-02-12T11:26:19.918Z,3.24
2023-02-12T11:31:29.676Z,3.79
2023-02-12T11:36:36.861Z,7.68
2023-02-12T11:41:41.795Z,8.74
2023-02-12T11:46:56.478Z,6.83
2023-02-12T11:52:02.720Z,5.72
2023-02-12T11:57:05.620Z,5.04
2023-02-12T12:02:39.208Z,4.57
2023-02-12T12:07:50.837Z,4.25
2023-02-12T12:13:00.113Z,4.04
2023-02-12T12:19:05.345Z,3.84
2023-02-12T12:24:43.644Z,3.66
2023-02-12T12:30:05.723Z,3.51
2023-02-12T12:35:16.026Z,3.45
2023-02-12T12:40:33.948Z,3.42
2023-02-12T12:45:54.745Z,3.44
2023-02-12T12:51:12.990Z,3.48
2023-02-12T12:56:39.320Z,4.38
2023-02-12T13:01:51.976Z,8.33
2023-02-12T13:07:24.176Z,7.39
2023-02-12T13:13:00.604Z,6.06
2023-02-12T13:18:47.773Z,5.40
2023-02-12T13:24:02.254Z,4.84
2023-02-12T13:29:06.860Z,4.50
2023-02-12T13:34:15.076Z,4.33
2023-02-12T13:39:29.996Z,4.17
2023-02-12T13:44:59.801Z,4.02
2023-02-12T13:50:48.252Z,3.87
2023-02-12T13:56:17.546Z,3.75
2023-02-12T14:01:47.513Z,3.70
2023-02-12T14:07:06.787Z,3.67
2023-02-12T14:12:32.132Z,3.65
2023-02-12T14:17:34.958Z,3.64
2023-02-12T14:22:44.048Z,3.62
2023-02-12T14:27:50.465Z,3.61
2023-02-12T14:33:16.000Z,3.60
2023-02-12T14:38:18.749Z,3.58
2023-02-12T14:43:32.669Z,3.54
2023-02-12T14:48:51.877Z,3.46
2023-02-12T14:53:56.915Z,3.39
2023-02-12T14:59:03.429Z,3.34
2023-02-12T15:04:20.098Z,3.30
2023-02-12T15:09:39.839Z,3.25
2023-02-12T15:14:50.494Z,3.21
2023-02-12T15:20:02.715Z,3.18
2023-02-12T15:25:35.013Z,3.13
2023-02-12T15:30:42.445Z,3.08
2023-02-12T15:35:45.447Z,3.04
2023-02-12T15:40:57.520Z,3.00
2023-02-12T15:46:02.288Z,2.95
2023-02-12T15:51:17.232Z,2.90
2023-02-12T15:56:24.505Z,2.85
2023-02-12T16:01:36.893Z,2.81
2023-02-12T16:06:39.905Z,3.98
2023-02-12T16:11:45.692Z,7.88
2023-02-12T16:16:52.816Z,7.83
2023-02-12T16:22:06.113Z,6.14
2023-02-12T16:27:15.069Z,5.19
2023-02-12T16:32:45.896Z,4.58
2023-02-12T16:37:51.971Z,4.12
2023-02-12T16:42:54.798Z,3.79
2023-02-12T16:48:15.781Z,3.49
2023-02-12T16:53:30.767Z,3.24
2023-02-12T16:58:33.708Z,3.04
2023-02-12T17:03:44.728Z,2.90
2023-02-12T17:08:47.747Z,2.79
2023-02-12T17:13:52.337Z,2.68
2023-02-12T17:18:55.189Z,2.59
2023-02-12T17:23:58.484Z,2.50
2023-02-12T17:29:05.478Z,2.44
2023-02-12T17:34:08.812Z,2.40
2023-02-12T17:39:14.460Z,3.43
2023-02-12T17:44:17.331Z,7.17
2023-02-12T17:49:20.189Z,7.71
2023-02-12T17:54:23.151Z,5.88
2023-02-12T17:59:26.079Z,4.80
2023-02-12T18:04:28.987Z,4.12
2023-02-12T18:09:32.040Z,3.59
2023-02-12T18:14:35.050Z,3.20
2023-02-12T18:19:37.928Z,2.87
2023-02-12T18:24:41.404Z,2.59
2023-02-12T18:29:44.736Z,2.37
2023-02-12T18:34:47.586Z,2.22
2023-02-12T18:39:50.441Z,2.11
2023-02-12T18:44:53.289Z,2.02
2023-02-12T18:49:58.009Z,3.03
2023-02-12T18:55:00.993Z,6.73
2023-02-12T19:00:05.238Z,7.77
2023-02-12T19:05:10.518Z,5.82
2023-02-12T19:10:14.363Z,4.60
2023-02-12T19:15:17.708Z,3.88
2023-02-12T19:20:20.943Z,3.38
2023-02-12T19:25:23.784Z,2.96
2023-02-12T19:30:26.625Z,2.61
2023-02-12T19:35:29.501Z,2.36
2023-02-12T19:40:32.525Z,2.15
2023-02-12T19:45:35.406Z,1.98
2023-02-12T19:50:44.718Z,2.97
2023-02-12T19:55:47.618Z,7.15
2023-02-12T20:00:50.480Z,8.23
2023-02-12T20:06:07.133Z,6.15
2023-02-12T20:11:14.645Z,4.90
2023-02-12T20:16:21.980Z,4.17
2023-02-12T20:21:28.346Z,3.67
2023-02-12T20:26:33.293Z,3.30
2023-02-12T20:31:37.733Z,3.02
2023-02-12T20:36:43.421Z,3.89
2023-02-12T20:41:47.449Z,7.53
2023-02-12T20:46:56.099Z,8.36
2023-02-12T20:52:02.089Z,6.46
2023-02-12T20:57:07.168Z,5.33
2023-02-12T21:02:12.572Z,4.62
2023-02-12T21:07:15.865Z,4.11
2023-02-12T21:12:19.719Z,3.73
2023-02-12T21:17:23.648Z,3.46
2023-02-12T21:22:27.623Z,3.25
2023-02-12T21:27:32.660Z,4.25
2023-02-12T21:32:42.725Z,7.76
2023-02-12T21:37:53.111Z,8.59
2023-02-12T21:42:56.730Z,6.68
2023-02-12T21:47:59.608Z,5.58
2023-02-12T21:53:02.448Z,4.89
2023-02-12T21:58:05.920Z,4.35
2023-02-12T22:03:08.740Z,3.95
2023-02-12T22:08:11.753Z,3.65
2023-02-12T22:13:14.590Z,4.68
2023-02-12T22:18:17.444Z,8.25
2023-02-12T22:23:20.288Z,8.93
2023-02-12T22:28:23.311Z,6.91
2023-02-12T22:33:26.205Z,5.68
2023-02-12T22:38:29.137Z,4.91
2023-02-12T22:43:33.968Z,4.37
2023-02-12T22:48:37.286Z,3.97
2023-02-12T22:53:40.438Z,4.76
2023-02-12T22:58:44.064Z,8.15
2023-02-12T23:03:47.009Z,9.53
2023-02-12T23:08:58.871Z,7.87
2023-02-12T23:14:01.834Z,6.36
2023-02-12T23:19:04.691Z,5.44
2023-02-12T23:24:07.924Z,4.91
2023-02-12T23:29:11.048Z,7.43
2023-02-12T23:34:14.365Z,10.07
2023-02-12T23:39:17.204Z,8.61
2023-02-12T23:44:20.020Z,6.83
2023-02-12T23:49:23.788Z,5.86
2023-02-12T23:54:26.612Z,7.77
2023-02-12T23:59:29.431Z,10.41
